createdAt,value
2023-01-08T00:00:19.914Z,5.40
2023-01-08T00:05:22.715Z,4.05
2023-01-08T00:10:25.367Z,4.00
2023-01-08T00:15:30.111Z,4.80
2023-01-08T00:20:32.750Z,8.45
2023-01-08T00:25:35.400Z,5.78
2023-01-08T00:30:39.607Z,4.85
2023-01-08T00:35:42.323Z,5.97
2023-01-08T00:40:45.000Z,3.92
2023-01-08T00:45:51.637Z,6.68
2023-01-08T00:50:55.126Z,5.60
2023-01-08T00:56:01.475Z,6.70
2023-01-08T01:01:11.065Z,6.18
2023-01-08T01:06:14.881Z,4.88
2023-01-08T01:11:20.744Z,3.92
2023-01-08T01:16:25.442Z,5.80
2023-01-08T01:21:29.680Z,3.78
2023-01-08T01:26:32.963Z,4.82
2023-01-08T01:31:36.976Z,10.57
2023-01-08T01:36:39.767Z,6.07
2023-01-08T01:41:44.900Z,4.15
2023-01-08T01:46:49.514Z,3.60
2023-01-08T01:51:55.118Z,4.95
2023-01-08T01:56:58.101Z,3.95
2023-01-08T02:02:02.333Z,3.55
2023-01-08T02:07:10.276Z,3.75
2023-01-08T02:12:19.917Z,3.95
2023-01-08T02:17:30.503Z,4.45
2023-01-08T02:22:42.756Z,4.53
2023-01-08T02:27:48.925Z,3.58
2023-01-08T02:32:51.653Z,3.90
2023-01-08T02:37:54.388Z,3.22
2023-01-08T02:43:01.030Z,3.60
2023-01-08T02:48:07.871Z,3.97
2023-01-08T02:53:14.267Z,3.40
2023-01-08T02:58:19.429Z,3.70
2023-01-08T03:03:24.087Z,4.22
2023-01-08T03:08:27.330Z,3.03
2023-01-08T03:13:35.118Z,3.40
2023-01-08T03:18:42.795Z,3.15
2023-01-08T03:23:45.719Z,3.70
2023-01-08T03:28:52.810Z,3.63
2023-01-08T03:33:56.261Z,4.43
2023-01-08T03:39:01.262Z,4.30
2023-01-08T03:44:05.808Z,2.85
2023-01-08T03:49:08.907Z,4.18
2023-01-08T03:54:14.853Z,3.28
2023-01-08T03:59:19.081Z,3.58
2023-01-08T04:04:21.829Z,3.05
2023-01-08T04:09:24.554Z,4.10
2023-01-08T04:14:28.676Z,5.85
2023-01-08T04:19:31.334Z,3.30
2023-01-08T04:24:34.016Z,4.97
2023-01-08T04:29:38.106Z,3.50
2023-01-08T04:34:40.886Z,3.60
2023-01-08T04:39:43.555Z,2.88
2023-01-08T04:44:47.602Z,4.40
2023-01-08T04:49:50.397Z,4.00
2023-01-08T04:54:53.087Z,4.70
2023-01-08T04:59:57.134Z,3.22
2023-01-08T05:04:59.931Z,3.88
2023-01-08T05:10:02.643Z,4.88
2023-01-08T05:15:07.752Z,4.13
2023-01-08T05:20:11.130Z,3.17
2023-01-08T05:25:13.884Z,3.20
2023-01-08T05:30:18.289Z,3.20
2023-01-08T05:35:21.040Z,3.83
2023-01-08T05:40:23.772Z,5.38
2023-01-08T05:45:27.867Z,3.63
2023-01-08T05:50:30.595Z,3.25
2023-01-08T05:55:33.379Z,3.38
2023-01-08T06:00:37.469Z,3.35
2023-01-08T06:05:40.223Z,3.17
2023-01-08T06:10:42.912Z,3.25
2023-01-08T06:15:46.987Z,2.95
2023-01-08T06:20:49.857Z,3.03
2023-01-08T06:25:53.509Z,4.38
2023-01-08T06:30:58.529Z,3.63
2023-01-08T06:36:02.156Z,2.70
2023-01-08T06:41:06.186Z,3.05
2023-01-08T06:46:10.789Z,3.38
2023-01-08T06:51:13.498Z,2.90
2023-01-08T06:56:16.291Z,2.60
2023-01-08T07:01:20.480Z,2.97
2023-01-08T07:06:23.859Z,2.60
2023-01-08T07:11:26.587Z,2.47
2023-01-08T07:16:30.646Z,2.30
2023-01-08T07:21:33.318Z,3.45
2023-01-08T07:26:36.339Z,3.00
2023-01-08T07:31:40.404Z,2.03
2023-01-08T07:36:43.228Z,2.00
2023-01-08T07:41:45.946Z,2.25
2023-01-08T07:46:50.116Z,2.65
2023-01-08T07:51:53.087Z,2.05
2023-01-08T07:56:56.048Z,2.45
2023-01-08T08:02:00.293Z,2.45
2023-01-08T08:07:03.141Z,3.55
2023-01-08T08:12:06.189Z,2.10
2023-01-08T08:17:10.217Z,2.30
2023-01-08T08:22:13.700Z,2.88
2023-01-08T08:27:16.369Z,2.00
2023-01-08T08:32:20.443Z,2.30
2023-01-08T08:37:23.166Z,2.60
2023-01-08T08:42:25.861Z,2.78
2023-01-08T08:47:29.962Z,1.63
2023-01-08T08:52:33.009Z,1.95
2023-01-08T08:57:35.677Z,2.38
2023-01-08T09:02:39.959Z,2.05
2023-01-08T09:07:42.828Z,1.55
2023-01-08T09:12:45.495Z,1.65
2023-01-08T09:17:55.568Z,2.58
2023-01-08T09:22:59.664Z,1.75
2023-01-08T09:28:02.683Z,1.73
2023-01-08T09:33:07.037Z,2.67
2023-01-08T09:38:09.749Z,2.13
2023-01-08T09:43:17.707Z,2.10
2023-01-08T09:48:25.325Z,1.50
2023-01-08T09:53:28.396Z,1.50
2023-01-08T09:58:37.518Z,1.90
2023-01-08T10:03:43.024Z,1.65
2023-01-08T10:13:55.943Z,1.85
2023-01-08T10:19:00.555Z,1.85
2023-01-08T10:24:03.320Z,1.40
2023-01-08T10:29:12.669Z,1.30
2023-01-08T10:34:29.619Z,1.92
2023-01-08T10:39:33.100Z,2.75
2023-01-08T10:44:35.886Z,1.48
2023-01-08T10:49:42.761Z,1.23
2023-01-08T10:54:45.493Z,2.05
2023-01-08T10:59:48.299Z,1.50
2023-01-08T11:04:53.135Z,1.83
2023-01-08T11:09:55.987Z,1.80
2023-01-08T11:14:58.757Z,3.75
2023-01-08T11:20:11.351Z,1.50
2023-01-08T11:25:16.124Z,1.52
2023-01-08T11:30:20.562Z,1.33
2023-01-08T11:35:28.436Z,1.55
2023-01-08T11:40:38.479Z,1.92
2023-01-08T11:45:52.376Z,1.60
2023-01-08T11:51:24.042Z,1.58
2023-01-08T11:56:35.532Z,1.85
2023-01-08T12:01:49.920Z,3.10
2023-01-08T12:07:01.186Z,1.70
2023-01-08T12:12:09.928Z,1.70
2023-01-08T12:17:44.212Z,2.35
2023-01-08T12:22:54.139Z,3.67
2023-01-08T12:28:03.901Z,1.40
2023-01-08T12:33:10.699Z,5.10
2023-01-08T12:38:21.331Z,1.30
2023-01-08T12:43:26.952Z,2.72
2023-01-08T12:48:32.324Z,1.85
2023-01-08T12:53:48.809Z,1.17
2023-01-08T12:59:02.918Z,2.45
2023-01-08T13:04:06.157Z,1.80
2023-01-08T13:09:23.040Z,1.90
2023-01-08T13:14:27.450Z,1.58
2023-01-08T13:19:32.545Z,2.47
2023-01-08T13:24:37.968Z,1.67
2023-01-08T13:29:42.710Z,2.35
2023-01-08T13:34:46.443Z,2.05
2023-01-08T13:39:50.530Z,1.58
2023-01-08T13:44:58.939Z,1.45
2023-01-08T13:50:04.303Z,2.83
2023-01-08T13:55:16.031Z,2.75
2023-01-08T14:00:24.215Z,1.73
2023-01-08T14:05:28.745Z,2.30
2023-01-08T14:10:33.019Z,2.10
2023-01-08T14:15:36.647Z,3.58
2023-01-08T14:20:41.268Z,3.08
2023-01-08T14:25:48.757Z,2.85
2023-01-08T14:30:52.763Z,2.60
2023-01-08T14:35:56.518Z,4.60
2023-01-08T14:41:02.229Z,4.05
2023-01-08T14:46:05.170Z,2.40
2023-01-08T14:51:09.126Z,2.60
2023-01-08T14:56:15.695Z,3.67
2023-01-08T15:01:20.786Z,2.83
2023-01-08T15:06:27.894Z,3.72
2023-01-08T15:11:33.099Z,3.78
2023-01-08T15:16:39.741Z,2.92
2023-01-08T15:21:47.023Z,2.75
2023-01-08T15:26:51.094Z,3.13
2023-01-08T15:31:53.828Z,3.70
2023-01-08T15:36:56.532Z,3.38
2023-01-08T15:42:21.497Z,4.10
2023-01-08T15:47:24.402Z,4.28
2023-01-08T15:52:29.670Z,3.05
2023-01-08T15:57:33.796Z,3.13
2023-01-08T16:02:41.862Z,3.58
2023-01-08T16:07:45.894Z,4.18
2023-01-08T16:12:49.950Z,3.83
2023-01-08T16:17:55.783Z,3.17
2023-01-08T16:22:58.464Z,3.03
2023-01-08T16:28:02.744Z,4.35
2023-01-08T16:33:05.438Z,8.27
2023-01-08T16:38:10.773Z,4.20
2023-01-08T16:43:15.068Z,3.67
2023-01-08T16:48:18.104Z,4.15
2023-01-08T16:53:21.855Z,5.60
2023-01-08T16:58:25.910Z,4.07
2023-01-08T17:03:28.784Z,4.60
2023-01-08T17:08:31.587Z,3.45
2023-01-08T17:13:35.598Z,6.20
2023-01-08T17:18:38.572Z,9.70
2023-01-08T17:23:41.672Z,5.25
2023-01-08T17:28:47.080Z,5.35
2023-01-08T17:33:51.224Z,6.18
2023-01-08T17:38:54.428Z,4.65
2023-01-08T17:43:58.555Z,5.78
2023-01-08T17:49:01.234Z,10.00
2023-01-08T17:54:03.926Z,6.93
2023-01-08T17:59:08.188Z,11.43
2023-01-08T18:04:10.851Z,8.40
2023-01-08T18:09:13.742Z,7.70
2023-01-08T18:14:17.884Z,10.38
2023-01-08T18:19:21.088Z,13.50
2023-01-08T18:24:23.738Z,6.95
2023-01-08T18:29:27.840Z,10.40
2023-01-08T18:34:30.615Z,7.40
2023-01-08T18:39:33.252Z,8.93
2023-01-08T18:44:37.325Z,11.75
2023-01-08T18:49:40.028Z,7.22
2023-01-08T18:54:42.647Z,7.13
2023-01-08T18:59:46.809Z,7.85
2023-01-08T19:04:49.919Z,6.40
2023-01-08T19:09:53.120Z,7.35
2023-01-08T19:14:57.167Z,6.78
2023-01-08T19:19:59.892Z,11.90
2023-01-08T19:25:02.536Z,6.32
2023-01-08T19:30:08.149Z,7.32
2023-01-08T19:35:11.011Z,7.18
2023-01-08T19:40:14.363Z,8.60
2023-01-08T19:45:19.126Z,9.80
2023-01-08T19:50:21.818Z,46.33
2023-01-08T19:55:24.494Z,455.50
2023-01-08T20:00:28.773Z,472.63
2023-01-08T20:05:31.504Z,467.92
2023-01-08T20:10:34.147Z,431.92
2023-01-08T20:15:39.280Z,402.73
2023-01-08T20:20:41.936Z,357.25
2023-01-08T20:25:45.228Z,321.67
2023-01-08T20:30:49.262Z,305.90
2023-01-08T20:35:53.131Z,271.38
2023-01-08T20:40:55.843Z,264.75
2023-01-08T20:45:59.863Z,208.50
2023-01-08T20:51:04.899Z,208.20
2023-01-08T20:56:09.709Z,211.55
2023-01-08T21:01:15.161Z,188.50
2023-01-08T21:06:20.153Z,164.90
2023-01-08T21:11:23.173Z,180.15
2023-01-08T21:16:28.403Z,151.68
2023-01-08T21:21:33.791Z,157.70
2023-01-08T21:26:37.873Z,137.50
2023-01-08T21:31:43.148Z,134.98
2023-01-08T21:36:46.022Z,118.25
2023-01-08T21:42:06.128Z,116.68
2023-01-08T21:47:12.142Z,117.28
2023-01-08T21:52:32.883Z,102.32
2023-01-08T21:57:39.049Z,99.47
2023-01-08T22:02:43.378Z,85.43
2023-01-08T22:07:46.027Z,92.07
2023-01-08T22:12:48.698Z,86.20
